Time;durP1;ratioP1;P1;durP2;ratioP2;P2;SDS_P1;SDS_P2;PMS_P1;PMS_P2;Temp;Humidity;BMP_temperature;BMP_pressure;BME280_temperature;BME280_humidity;BME280_pressure;Samples;Min_cycle;Max_cycle;Signal;HPM_P1;HPM_P2
2023/12/14 00:02:24;0.00;0.00;0.62;0.00;0.00;0.62;1.90;1.23;;;22.30;29.10;;;;;;2268620;61;20432;-55
2023/12/14 00:05:09;0.00;0.00;0.62;0.00;0.00;0.62;2.20;1.47;;;22.30;29.00;;;;;;2269164;61;20402;-57
2023/12/14 00:07:54;0.00;0.00;0.62;0.00;0.00;0.62;1.73;1.20;;;22.30;29.00;;;;;;2269091;61;20370;-53
2023/12/14 00:10:39;0.00;0.00;0.62;0.00;0.00;0.62;1.80;1.00;;;22.30;29.00;;;;;;2268730;61;20521;-54
2023/12/14 00:13:24;0.00;0.00;0.62;0.00;0.00;0.62;1.80;1.10;;;22.30;29.00;;;;;;2268245;61;20870;-50
2023/12/14 00:16:08;0.00;0.00;0.62;0.00;0.00;0.62;1.73;1.30;;;22.30;29.00;;;;;;2268743;61;20379;-53
2023/12/14 00:18:53;0.00;0.00;0.62;0.00;0.00;0.62;2.20;1.40;;;22.30;29.00;;;;;;2268623;61;20783;-52
2023/12/14 00:21:38;0.00;0.00;0.62;0.00;0.00;0.62;2.33;1.00;;;22.30;29.00;;;;;;2268435;61;20386;-52
2023/12/14 00:24:24;0.00;0.00;0.62;0.00;0.00;0.62;1.90;1.20;;;22.30;28.90;;;;;;2268342;61;20381;-55
2023/12/14 00:27:08;0.00;0.00;0.62;0.00;0.00;0.62;2.00;1.27;;;22.40;29.00;;;;;;2268900;61;20367;-58
2023/12/14 00:29:53;0.00;0.00;0.62;0.00;0.00;0.62;1.90;1.27;;;22.30;28.90;;;;;;2268833;61;20933;-56
2023/12/14 00:32:37;0.00;0.00;0.62;0.00;0.00;0.62;1.93;1.30;;;22.40;29.00;;;;;;2268140;61;20371;-56
2023/12/14 00:35:22;0.00;0.00;0.62;0.00;0.00;0.62;2.10;1.30;;;22.30;28.90;;;;;;2268855;61;20434;-56
2023/12/14 00:38:07;0.00;0.00;0.62;0.00;0.00;0.62;2.33;1.53;;;22.30;28.90;;;;;;2269173;61;20366;-54
2023/12/14 00:40:53;0.00;0.00;0.62;0.00;0.00;0.62;1.60;1.10;;;22.40;28.90;;;;;;2268855;61;20415;-59
2023/12/14 00:43:38;0.00;0.00;0.62;0.00;0.00;0.62;2.10;1.20;;;22.30;28.90;;;;;;2268706;61;20852;-58
2023/12/14 00:46:22;0.00;0.00;0.62;0.00;0.00;0.62;1.80;1.30;;;22.30;28.90;;;;;;2268527;61;20378;-53
2023/12/14 00:49:07;0.00;0.00;0.62;0.00;0.00;0.62;1.53;1.00;;;22.30;28.80;;;;;;2268951;61;20359;-55
2023/12/14 00:51:51;0.00;0.00;0.62;0.00;0.00;0.62;1.80;1.10;;;22.30;28.80;;;;;;2268432;61;20398;-54
2023/12/14 00:54:36;0.00;0.00;0.62;0.00;0.00;0.62;1.87;1.17;;;22.40;28.90;;;;;;2265328;61;20386;-54
2023/12/14 00:57:22;0.00;0.00;0.62;0.00;0.00;0.62;1.90;1.20;;;22.30;28.80;;;;;;2268639;61;20359;-55
2023/12/14 01:00:12;0.00;0.00;0.62;0.00;0.00;0.62;1.80;1.07;;;22.40;28.80;;;;;;2268685;61;20382;-53
2023/12/14 01:02:56;0.00;0.00;0.62;0.00;0.00;0.62;1.90;1.33;;;22.40;28.80;;;;;;2267685;61;20456;-51
2023/12/14 01:05:41;0.00;0.00;0.62;0.00;0.00;0.62;1.53;1.03;;;22.40;28.80;;;;;;2268960;61;21001;-53
2023/12/14 01:08:26;0.00;0.00;0.62;0.00;0.00;0.62;2.03;1.20;;;22.40;28.80;;;;;;2268371;61;20379;-56
2023/12/14 01:11:11;0.00;0.00;0.62;0.00;0.00;0.62;1.70;1.27;;;22.40;28.80;;;;;;2269005;61;20471;-51
2023/12/14 01:13:57;0.00;0.00;0.62;0.00;0.00;0.62;2.43;1.13;;;22.40;28.80;;;;;;2268798;61;20359;-52
2023/12/14 01:16:42;0.00;0.00;0.62;0.00;0.00;0.62;2.43;1.10;;;22.40;28.80;;;;;;2268350;61;20368;-68
2023/12/14 01:19:27;0.00;0.00;0.62;0.00;0.00;0.62;1.80;0.90;;;22.40;28.80;;;;;;2265427;61;20359;-64
2023/12/14 01:22:11;0.00;0.00;0.62;0.00;0.00;0.62;1.80;1.10;;;22.40;28.80;;;;;;2268564;61;20374;-53
2023/12/14 01:24:56;0.00;0.00;0.62;0.00;0.00;0.62;2.47;1.10;;;22.40;28.80;;;;;;2265060;61;20767;-52
2023/12/14 01:27:40;0.00;0.00;0.62;0.00;0.00;0.62;1.60;1.20;;;22.40;28.80;;;;;;2268818;61;20359;-52
2023/12/14 01:30:26;0.00;0.00;0.62;0.00;0.00;0.62;2.70;1.33;;;22.40;28.70;;;;;;2268526;61;20976;-51
2023/12/14 01:33:11;0.00;0.00;0.62;0.00;0.00;0.62;2.03;1.37;;;22.40;28.70;;;;;;2268075;61;20929;-53
2023/12/14 01:35:55;0.00;0.00;0.62;0.00;0.00;0.62;2.93;1.30;;;22.40;28.80;;;;;;2268310;61;20390;-53
2023/12/14 01:38:40;0.00;0.00;0.62;0.00;0.00;0.62;2.67;1.03;;;22.40;28.80;;;;;;2265053;61;20445;-53
2023/12/14 01:41:24;0.00;0.00;0.62;0.00;0.00;0.62;1.83;1.10;;;22.40;28.80;;;;;;2268503;61;20386;-56
2023/12/14 01:44:09;0.00;0.00;0.62;0.00;0.00;0.62;2.67;1.50;;;22.40;28.80;;;;;;2268685;61;20429;-57
2023/12/14 01:46:55;0.00;0.00;0.62;0.00;0.00;0.62;2.10;1.20;;;22.40;28.80;;;;;;2265089;61;20504;-55
2023/12/14 01:49:41;0.00;0.00;0.62;0.00;0.00;0.62;1.80;1.10;;;22.40;28.80;;;;;;2269106;61;20386;-53
2023/12/14 01:52:26;0.00;0.00;0.62;0.00;0.00;0.62;1.97;1.00;;;22.40;28.80;;;;;;2268751;61;20929;-53
2023/12/14 01:55:10;0.00;0.00;0.62;0.00;0.00;0.62;1.60;1.07;;;22.40;28.80;;;;;;2268915;61;20410;-57
2023/12/14 01:57:55;0.00;0.00;0.62;0.00;0.00;0.62;2.00;1.03;;;22.40;28.80;;;;;;2268827;61;20440;-53
2023/12/14 02:00:43;0.00;0.00;0.62;0.00;0.00;0.62;2.20;1.30;;;22.40;28.80;;;;;;2268225;61;20433;-54
2023/12/14 02:03:30;0.00;0.00;0.62;0.00;0.00;0.62;2.00;1.20;;;22.40;28.80;;;;;;2268479;60;20782;-56
2023/12/14 02:06:15;0.00;0.00;0.62;0.00;0.00;0.62;1.77;0.80;;;22.40;28.80;;;;;;2268396;61;20375;-59
2023/12/14 02:09:00;0.00;0.00;0.62;0.00;0.00;0.62;1.90;1.27;;;22.40;28.80;;;;;;2268208;61;20366;-57
2023/12/14 02:11:44;0.00;0.00;0.62;0.00;0.00;0.62;1.50;0.90;;;22.40;28.80;;;;;;2268029;61;20921;-61
2023/12/14 02:14:29;0.00;0.00;0.62;0.00;0.00;0.62;2.23;1.67;;;22.40;28.80;;;;;;2271037;61;20394;-60
2023/12/14 02:17:13;0.00;0.00;0.62;0.00;0.00;0.62;1.70;1.10;;;22.40;28.80;;;;;;2273008;61;20377;-59
2023/12/14 02:20:00;0.00;0.00;0.62;0.00;0.00;0.62;1.70;1.20;;;22.40;28.80;;;;;;2270407;61;20398;-51
2023/12/14 02:22:53;0.00;0.00;0.62;0.00;0.00;0.62;1.47;0.93;;;22.40;28.70;;;;;;2272277;61;20384;-60
2023/12/14 02:25:37;0.00;0.00;0.62;0.00;0.00;0.62;1.70;1.10;;;22.40;28.80;;;;;;2338413;53;20769;-57
2023/12/14 02:28:22;0.00;0.00;0.62;0.00;0.00;0.62;2.13;1.30;;;22.40;28.80;;;;;;2268974;61;20371;-60
2023/12/14 02:31:07;0.00;0.00;0.62;0.00;0.00;0.62;1.63;0.90;;;22.40;28.70;;;;;;2268582;61;20386;-57
2023/12/14 02:33:51;0.00;0.00;0.62;0.00;0.00;0.62;1.77;1.00;;;22.40;28.70;;;;;;2268801;61;20371;-56
2023/12/14 02:36:36;0.00;0.00;0.62;0.00;0.00;0.62;1.67;1.00;;;22.40;28.70;;;;;;2269043;61;21040;-57
2023/12/14 02:39:22;0.00;0.00;0.62;0.00;0.00;0.62;1.50;0.90;;;22.40;28.70;;;;;;2268782;61;20416;-56
2023/12/14 02:42:06;0.00;0.00;0.62;0.00;0.00;0.62;1.70;1.13;;;22.40;28.70;;;;;;2268562;61;20371;-55
2023/12/14 02:44:52;0.00;0.00;0.62;0.00;0.00;0.62;1.83;1.20;;;22.40;28.70;;;;;;2268723;61;20424;-49
2023/12/14 02:47:36;0.00;0.00;0.62;0.00;0.00;0.62;1.50;0.90;;;22.40;28.70;;;;;;2268838;61;20501;-57
2023/12/14 02:50:21;0.00;0.00;0.62;0.00;0.00;0.62;1.60;1.10;;;22.40;28.70;;;;;;2268760;61;20387;-55
2023/12/14 02:53:05;0.00;0.00;0.62;0.00;0.00;0.62;1.70;1.10;;;22.40;28.70;;;;;;2263005;61;20386;-54
2023/12/14 02:55:51;0.00;0.00;0.62;0.00;0.00;0.62;1.57;1.10;;;22.40;28.70;;;;;;2268665;61;20772;-57
2023/12/14 02:58:36;0.00;0.00;0.62;0.00;0.00;0.62;1.50;0.90;;;22.40;28.70;;;;;;2268815;61;20368;-56
2023/12/14 03:01:23;0.00;0.00;0.62;0.00;0.00;0.62;1.73;1.00;;;22.40;28.60;;;;;;2268495;61;20422;-58
2023/12/14 03:04:08;0.00;0.00;0.62;0.00;0.00;0.62;1.70;1.10;;;22.40;28.70;;;;;;2268936;61;20356;-54
2023/12/14 03:06:53;0.00;0.00;0.62;0.00;0.00;0.62;1.53;0.90;;;22.40;28.60;;;;;;2268655;61;20405;-49
2023/12/14 03:09:44;0.00;0.00;0.62;0.00;0.00;0.62;1.90;1.00;;;22.40;28.60;;;;;;2268818;61;20470;-55
2023/12/14 03:12:30;0.00;0.00;0.62;0.00;0.00;0.62;1.80;1.00;;;22.40;28.60;;;;;;2268368;61;20375;-54
2023/12/14 03:15:18;0.00;0.00;0.62;0.00;0.00;0.62;1.60;1.10;;;22.40;28.60;;;;;;2268416;61;20391;-54
2023/12/14 03:18:03;0.00;0.00;0.62;0.00;0.00;0.62;1.93;1.27;;;22.40;28.50;;;;;;2268912;61;20402;-53
2023/12/14 03:20:48;0.00;0.00;0.62;0.00;0.00;0.62;2.03;1.37;;;22.50;28.60;;;;;;2268513;61;20395;-56
2023/12/14 03:23:32;0.00;0.00;0.62;0.00;0.00;0.62;2.03;1.10;;;22.40;28.40;;;;;;2268180;61;20444;-52
2023/12/14 03:26:17;0.00;0.00;0.62;0.00;0.00;0.62;1.80;1.07;;;22.40;28.40;;;;;;2268565;61;20478;-53
2023/12/14 03:29:02;0.00;0.00;0.62;0.00;0.00;0.62;2.60;1.40;;;22.40;28.30;;;;;;2268417;61;20358;-55
2023/12/14 03:31:47;0.00;0.00;0.62;0.00;0.00;0.62;2.00;1.40;;;22.50;28.40;;;;;;2268343;61;20532;-56
2023/12/14 03:34:32;0.00;0.00;0.62;0.00;0.00;0.62;2.10;1.33;;;22.40;28.30;;;;;;2268740;61;20417;-58
2023/12/14 03:37:16;0.00;0.00;0.62;0.00;0.00;0.62;2.10;1.77;;;22.40;28.30;;;;;;2268136;61;20375;-54
2023/12/14 03:40:01;0.00;0.00;0.62;0.00;0.00;0.62;5.67;1.57;;;22.40;28.30;;;;;;2268790;61;20387;-58
2023/12/14 03:42:46;0.00;0.00;0.62;0.00;0.00;0.62;3.07;1.50;;;22.40;28.30;;;;;;2268318;61;20382;-56
2023/12/14 03:45:31;0.00;0.00;0.62;0.00;0.00;0.62;2.07;1.20;;;22.40;28.30;;;;;;2268341;61;20364;-54
2023/12/14 03:48:16;0.00;0.00;0.62;0.00;0.00;0.62;1.97;1.33;;;22.40;28.10;;;;;;2268771;61;20911;-56
2023/12/14 03:51:03;0.00;0.00;0.62;0.00;0.00;0.62;2.20;1.37;;;22.40;28.00;;;;;;2268814;61;20952;-54
2023/12/14 03:53:48;0.00;0.00;0.62;0.00;0.00;0.62;2.50;1.70;;;22.40;27.90;;;;;;2266707;61;20359;-53
2023/12/14 03:56:33;0.00;0.00;0.62;0.00;0.00;0.62;2.10;1.60;;;22.40;27.80;;;;;;2268677;61;20949;-53
2023/12/14 03:59:17;0.00;0.00;0.62;0.00;0.00;0.62;2.07;1.67;;;22.40;27.80;;;;;;2268193;61;20421;-57
2023/12/14 04:02:04;0.00;0.00;0.62;0.00;0.00;0.62;2.50;1.87;;;22.30;27.70;;;;;;2268392;61;20400;-54
2023/12/14 04:04:48;0.00;0.00;0.62;0.00;0.00;0.62;2.30;1.50;;;22.30;27.60;;;;;;2268903;61;20359;-55
2023/12/14 04:07:33;0.00;0.00;0.62;0.00;0.00;0.62;2.23;1.50;;;22.40;27.60;;;;;;2268360;61;20378;-52
2023/12/14 04:10:18;0.00;0.00;0.62;0.00;0.00;0.62;1.90;1.50;;;22.30;27.50;;;;;;2268538;61;20532;-60
2023/12/14 04:13:02;0.00;0.00;0.62;0.00;0.00;0.62;2.80;2.00;;;22.30;27.50;;;;;;2268174;61;20417;-57
2023/12/14 04:15:47;0.00;0.00;0.62;0.00;0.00;0.62;2.20;1.57;;;22.30;27.40;;;;;;2268449;61;20387;-60
2023/12/14 04:18:33;0.00;0.00;0.62;0.00;0.00;0.62;1.97;1.43;;;22.30;27.40;;;;;;2268541;61;20417;-58
2023/12/14 04:21:18;0.00;0.00;0.62;0.00;0.00;0.62;2.07;1.50;;;22.30;27.40;;;;;;2268187;61;20914;-58
2023/12/14 04:24:03;0.00;0.00;0.62;0.00;0.00;0.62;2.17;1.53;;;22.30;27.30;;;;;;2268627;61;20383;-56
2023/12/14 04:26:47;0.00;0.00;0.62;0.00;0.00;0.62;2.47;1.60;;;22.20;27.20;;;;;;2268904;61;20457;-58
2023/12/14 04:29:32;0.00;0.00;0.62;0.00;0.00;0.62;2.73;1.73;;;22.30;27.20;;;;;;2268228;61;20366;-53
2023/12/14 04:32:16;0.00;0.00;0.62;0.00;0.00;0.62;2.37;1.57;;;22.20;27.20;;;;;;2268330;61;20438;-57
2023/12/14 04:35:04;0.00;0.00;0.62;0.00;0.00;0.62;2.00;1.43;;;22.20;27.20;;;;;;2268444;61;20433;-53
2023/12/14 04:37:48;0.00;0.00;0.62;0.00;0.00;0.62;1.80;1.50;;;22.20;27.10;;;;;;2268102;61;20421;-57
2023/12/14 04:40:33;0.00;0.00;0.62;0.00;0.00;0.62;1.80;1.40;;;22.20;27.10;;;;;;2268514;61;20406;-55
2023/12/14 04:43:17;0.00;0.00;0.62;0.00;0.00;0.62;2.43;1.73;;;22.20;27.10;;;;;;2267884;61;20363;-51
2023/12/14 04:46:02;0.00;0.00;0.62;0.00;0.00;0.62;2.13;1.40;;;22.20;27.10;;;;;;2268695;61;20789;-54
2023/12/14 04:48:47;0.00;0.00;0.62;0.00;0.00;0.62;2.20;1.27;;;22.20;27.10;;;;;;2268557;61;20417;-56
2023/12/14 04:51:33;0.00;0.00;0.62;0.00;0.00;0.62;2.33;1.77;;;22.10;27.00;;;;;;2267379;61;20487;-53
2023/12/14 04:54:18;0.00;0.00;0.62;0.00;0.00;0.62;2.10;1.50;;;22.10;27.00;;;;;;2511776;53;20366;-54
2023/12/14 04:57:02;0.00;0.00;0.62;0.00;0.00;0.62;2.53;2.13;;;22.10;26.90;;;;;;2272546;61;20856;-53
2023/12/14 04:59:47;0.00;0.00;0.62;0.00;0.00;0.62;3.03;2.17;;;22.10;26.90;;;;;;2272255;61;20886;-54
2023/12/14 05:02:33;0.00;0.00;0.62;0.00;0.00;0.62;2.43;1.77;;;22.10;26.90;;;;;;2272367;61;20924;-54
2023/12/14 05:05:17;0.00;0.00;0.62;0.00;0.00;0.62;3.27;2.27;;;22.10;26.90;;;;;;2272252;61;20940;-56
2023/12/14 05:08:04;0.00;0.00;0.62;0.00;0.00;0.62;2.50;1.70;;;22.10;26.90;;;;;;2272669;61;20901;-51
2023/12/14 05:10:48;0.00;0.00;0.62;0.00;0.00;0.62;2.47;2.07;;;22.00;26.80;;;;;;2272492;61;20390;-52
2023/12/14 05:13:33;0.00;0.00;0.62;0.00;0.00;0.62;2.60;1.70;;;22.00;26.70;;;;;;2272094;61;20952;-52
2023/12/14 05:16:17;0.00;0.00;0.62;0.00;0.00;0.62;3.23;2.10;;;22.00;26.70;;;;;;2269222;61;20381;-52
2023/12/14 05:19:02;0.00;0.00;0.62;0.00;0.00;0.62;2.80;1.80;;;22.00;26.70;;;;;;2272583;61;20420;-55
2023/12/14 05:21:47;0.00;0.00;0.62;0.00;0.00;0.62;2.93;2.00;;;22.00;26.80;;;;;;2271723;61;20394;-52
2023/12/14 05:24:33;0.00;0.00;0.62;0.00;0.00;0.62;2.90;2.20;;;22.00;26.80;;;;;;2272716;61;20358;-56
2023/12/14 05:27:17;0.00;0.00;0.62;0.00;0.00;0.62;2.50;1.97;;;22.00;26.80;;;;;;2272285;61;20366;-55
2023/12/14 05:30:03;0.00;0.00;0.62;0.00;0.00;0.62;2.20;1.80;;;21.90;26.70;;;;;;2272379;61;20833;-56
2023/12/14 05:32:48;0.00;0.00;0.62;0.00;0.00;0.62;4.10;2.67;;;21.90;26.70;;;;;;2272005;61;20373;-54
2023/12/14 05:35:32;0.00;0.00;0.62;0.00;0.00;0.62;3.30;2.23;;;21.90;26.70;;;;;;2272177;61;20431;-51
2023/12/14 05:38:17;0.00;0.00;0.62;0.00;0.00;0.62;2.20;1.67;;;21.90;26.70;;;;;;2272444;61;20381;-57
2023/12/14 05:41:03;0.00;0.00;0.62;0.00;0.00;0.62;3.37;2.20;;;21.90;26.70;;;;;;2272515;61;20385;-54
2023/12/14 05:43:48;0.00;0.00;0.62;0.00;0.00;0.62;2.60;2.20;;;21.90;26.70;;;;;;2271894;61;20889;-51
2023/12/14 05:46:32;0.00;0.00;0.62;0.00;0.00;0.62;3.40;2.17;;;21.90;26.60;;;;;;2272597;61;20353;-53
2023/12/14 05:49:17;0.00;0.00;0.62;0.00;0.00;0.62;2.50;2.10;;;21.90;26.60;;;;;;2273143;60;20494;-53
2023/12/14 05:52:02;0.00;0.00;0.62;0.00;0.00;0.62;2.83;2.53;;;21.90;26.60;;;;;;2272669;61;20389;-57
2023/12/14 05:54:46;0.00;0.00;0.62;0.00;0.00;0.62;2.77;2.10;;;21.90;26.60;;;;;;2272863;61;20481;-58
2023/12/14 05:57:32;0.00;0.00;0.62;0.00;0.00;0.62;3.50;2.20;;;21.80;26.50;;;;;;2269440;61;20901;-54
2023/12/14 06:00:18;0.00;0.00;0.62;0.00;0.00;0.62;4.27;2.40;;;21.80;26.50;;;;;;2273021;61;20386;-58
2023/12/14 06:03:03;0.00;0.00;0.62;0.00;0.00;0.62;3.47;2.67;;;21.80;26.50;;;;;;2272735;61;20362;-52
2023/12/14 06:05:48;0.00;0.00;0.62;0.00;0.00;0.62;4.10;2.83;;;21.80;26.50;;;;;;2272765;61;20358;-55
2023/12/14 06:08:33;0.00;0.00;0.62;0.00;0.00;0.62;3.63;2.90;;;21.80;26.50;;;;;;2273079;61;20408;-56
2023/12/14 06:11:17;0.00;0.00;0.62;0.00;0.00;0.62;3.40;2.70;;;21.80;26.50;;;;;;2273186;61;20420;-51
2023/12/14 06:14:03;0.00;0.00;0.62;0.00;0.00;0.62;3.60;2.57;;;21.80;26.50;;;;;;2272983;61;20807;-54
2023/12/14 06:16:48;0.00;0.00;0.62;0.00;0.00;0.62;2.70;2.30;;;21.70;26.50;;;;;;2272989;61;20358;-53
2023/12/14 06:19:32;0.00;0.00;0.62;0.00;0.00;0.62;3.27;2.97;;;21.70;26.50;;;;;;2272880;61;20692;-51
2023/12/14 06:22:17;0.00;0.00;0.62;0.00;0.00;0.62;4.50;2.90;;;21.70;26.50;;;;;;2272484;61;20394;-55
2023/12/14 06:25:03;0.00;0.00;0.62;0.00;0.00;0.62;2.93;2.13;;;21.70;26.50;;;;;;2273037;61;20413;-54
2023/12/14 06:27:47;0.00;0.00;0.62;0.00;0.00;0.62;3.37;2.27;;;21.70;26.50;;;;;;2272929;61;20830;-54
2023/12/14 06:30:33;0.00;0.00;0.62;0.00;0.00;0.62;3.03;2.43;;;21.70;26.50;;;;;;2269533;61;20378;-57
2023/12/14 06:33:18;0.00;0.00;0.62;0.00;0.00;0.62;3.53;2.80;;;21.60;26.40;;;;;;2272782;61;20430;-53
2023/12/14 06:36:04;0.00;0.00;0.62;0.00;0.00;0.62;4.60;2.60;;;21.60;26.40;;;;;;2272631;61;20440;-60
2023/12/14 06:38:49;0.00;0.00;0.62;0.00;0.00;0.62;3.67;2.87;;;21.60;26.40;;;;;;2273004;61;20409;-55
2023/12/14 06:41:34;0.00;0.00;0.62;0.00;0.00;0.62;3.40;2.73;;;21.60;26.40;;;;;;2272363;61;20444;-54
2023/12/14 06:44:19;0.00;0.00;0.62;0.00;0.00;0.62;3.97;2.67;;;21.60;26.40;;;;;;2273029;61;20394;-55
2023/12/14 06:47:06;0.00;0.00;0.62;0.00;0.00;0.62;2.97;2.53;;;21.60;26.40;;;;;;2273043;61;20366;-52
2023/12/14 06:49:50;0.00;0.00;0.62;0.00;0.00;0.62;3.77;2.90;;;21.60;26.40;;;;;;2272688;61;20404;-55
2023/12/14 06:52:35;0.00;0.00;0.62;0.00;0.00;0.62;3.43;2.53;;;21.60;26.40;;;;;;2272545;61;20389;-56
2023/12/14 06:55:19;0.00;0.00;0.62;0.00;0.00;0.62;3.10;2.43;;;21.60;26.40;;;;;;2269706;61;20393;-55
2023/12/14 06:58:08;0.00;0.00;0.62;0.00;0.00;0.62;3.60;2.63;;;21.60;26.40;;;;;;2272742;61;20775;-57
2023/12/14 07:00:53;0.00;0.00;0.62;0.00;0.00;0.62;3.40;3.10;;;21.50;26.40;;;;;;2272796;60;20564;-52
2023/12/14 07:03:44;0.00;0.00;0.62;0.00;0.00;0.62;2.97;2.40;;;21.50;26.40;;;;;;2272141;61;20708;-56
2023/12/14 07:06:29;0.00;0.00;0.62;0.00;0.00;0.62;3.20;2.30;;;21.50;26.40;;;;;;2272971;61;20814;-55
2023/12/14 07:09:14;0.00;0.00;0.62;0.00;0.00;0.62;4.17;3.07;;;21.50;26.40;;;;;;2273093;61;20845;-52
2023/12/14 07:12:01;0.00;0.00;0.62;0.00;0.00;0.62;3.83;2.63;;;21.50;26.40;;;;;;2272040;61;20463;-54
2023/12/14 07:14:45;0.00;0.00;0.62;0.00;0.00;0.62;2.73;2.10;;;21.50;26.40;;;;;;2273064;61;20402;-57
2023/12/14 07:17:30;0.00;0.00;0.62;0.00;0.00;0.62;3.10;2.50;;;21.40;26.30;;;;;;2269647;61;20402;-56
2023/12/14 07:20:16;0.00;0.00;0.62;0.00;0.00;0.62;2.97;2.33;;;21.40;26.30;;;;;;2272614;61;20386;-54
2023/12/14 07:23:00;0.00;0.00;0.62;0.00;0.00;0.62;2.67;2.23;;;21.40;26.40;;;;;;2272675;61;20386;-55
2023/12/14 07:25:45;0.00;0.00;0.62;0.00;0.00;0.62;3.40;2.40;;;21.40;26.40;;;;;;2272929;61;20362;-58
2023/12/14 07:28:29;0.00;0.00;0.62;0.00;0.00;0.62;4.60;2.20;;;21.40;26.40;;;;;;2272731;61;20378;-56
2023/12/14 07:31:14;0.00;0.00;0.62;0.00;0.00;0.62;2.90;2.10;;;21.40;26.40;;;;;;2272807;61;20850;-55
2023/12/14 07:33:58;0.00;0.00;0.62;0.00;0.00;0.62;3.30;2.27;;;21.40;26.40;;;;;;2272425;61;20366;-55
2023/12/14 07:36:44;0.00;0.00;0.62;0.00;0.00;0.62;3.40;2.10;;;21.40;26.40;;;;;;2272795;61;20787;-56
2023/12/14 07:39:29;0.00;0.00;0.62;0.00;0.00;0.62;3.83;3.13;;;21.30;26.40;;;;;;2272606;61;20398;-51
2023/12/14 07:42:19;0.00;0.00;0.62;0.00;0.00;0.62;3.37;2.03;;;21.30;26.40;;;;;;2272049;61;20366;-55
2023/12/14 07:45:05;0.00;0.00;0.62;0.00;0.00;0.62;2.80;1.97;;;21.30;26.40;;;;;;2272644;61;20394;-56
2023/12/14 07:47:49;0.00;0.00;0.62;0.00;0.00;0.62;4.30;2.13;;;21.30;26.30;;;;;;2272992;61;20363;-55
2023/12/14 07:50:34;0.00;0.00;0.62;0.00;0.00;0.62;2.90;2.00;;;21.30;26.40;;;;;;2272890;61;20480;-55
2023/12/14 07:53:20;0.00;0.00;0.62;0.00;0.00;0.62;2.30;1.67;;;21.30;26.40;;;;;;2272428;61;20366;-53
2023/12/14 07:56:06;0.00;0.00;0.62;0.00;0.00;0.62;3.53;2.07;;;21.30;26.40;;;;;;2272480;61;20450;-52
2023/12/14 07:58:51;0.00;0.00;0.62;0.00;0.00;0.62;3.50;1.90;;;21.30;26.40;;;;;;2272740;61;20835;-56
2023/12/14 08:01:36;0.00;0.00;0.62;0.00;0.00;0.62;2.50;1.60;;;21.30;26.40;;;;;;2272504;61;20385;-54
2023/12/14 08:04:21;0.00;0.00;0.62;0.00;0.00;0.62;2.60;1.70;;;21.30;26.40;;;;;;2272825;61;20366;-56
2023/12/14 08:07:05;0.00;0.00;0.62;0.00;0.00;0.62;3.40;1.90;;;21.30;26.40;;;;;;2667553;45;20448;-51
2023/12/14 08:09:51;0.00;0.00;0.62;0.00;0.00;0.62;2.50;1.80;;;21.30;26.40;;;;;;2264805;61;20451;-58
2023/12/14 08:12:35;0.00;0.00;0.62;0.00;0.00;0.62;2.30;1.77;;;21.20;26.30;;;;;;2264248;61;20773;-52
2023/12/14 08:15:20;0.00;0.00;0.62;0.00;0.00;0.62;3.20;2.10;;;21.20;26.40;;;;;;2501930;53;20868;-56
2023/12/14 08:18:05;0.00;0.00;0.62;0.00;0.00;0.62;3.90;2.33;;;21.20;26.40;;;;;;2264305;61;20831;-55
2023/12/14 08:20:55;0.00;0.00;0.62;0.00;0.00;0.62;2.47;1.97;;;21.20;26.30;;;;;;2264493;61;20425;-55
2023/12/14 08:23:39;0.00;0.00;0.62;0.00;0.00;0.62;2.63;1.57;;;21.20;26.30;;;;;;2264296;61;20411;-55
2023/12/14 08:26:25;0.00;0.00;0.62;0.00;0.00;0.62;3.40;2.60;;;21.20;26.40;;;;;;2264341;61;20427;-54
2023/12/14 08:29:10;0.00;0.00;0.62;0.00;0.00;0.62;2.40;1.90;;;21.20;26.40;;;;;;2264264;61;20372;-56
2023/12/14 08:34:58;0.00;0.00;0.62;0.00;0.00;0.62;2.93;1.90;;;21.20;26.40;;;;;;2261268;61;20939;-56
2023/12/14 08:37:43;0.00;0.00;0.62;0.00;0.00;0.62;2.33;1.50;;;21.20;26.40;;;;;;2260280;61;20365;-54
2023/12/14 08:40:28;0.00;0.00;0.62;0.00;0.00;0.62;2.47;1.73;;;21.20;26.50;;;;;;2260849;61;20468;-55
2023/12/14 08:43:14;0.00;0.00;0.62;0.00;0.00;0.62;2.60;2.00;;;21.20;26.50;;;;;;2264225;61;20895;-54
2023/12/14 08:45:59;0.00;0.00;0.62;0.00;0.00;0.62;3.17;2.00;;;21.20;26.40;;;;;;2264422;61;20364;-55
2023/12/14 08:48:44;0.00;0.00;0.62;0.00;0.00;0.62;2.30;1.70;;;21.20;26.50;;;;;;2264120;61;20497;-55
2023/12/14 08:51:29;0.00;0.00;0.62;0.00;0.00;0.62;3.90;2.50;;;21.20;26.40;;;;;;2264487;61;20415;-53
2023/12/14 08:54:14;0.00;0.00;0.62;0.00;0.00;0.62;2.50;1.80;;;21.20;26.40;;;;;;2264398;61;20424;-52
2023/12/14 08:57:00;0.00;0.00;0.62;0.00;0.00;0.62;2.90;1.97;;;21.10;26.30;;;;;;2264559;61;20352;-56
2023/12/14 08:59:46;0.00;0.00;0.62;0.00;0.00;0.62;2.40;1.87;;;21.10;26.30;;;;;;2264385;61;20772;-54
2023/12/14 09:02:31;0.00;0.00;0.62;0.00;0.00;0.62;2.83;1.60;;;21.10;26.30;;;;;;2263846;61;20376;-57
2023/12/14 09:05:16;0.00;0.00;0.62;0.00;0.00;0.62;2.70;1.70;;;21.10;26.40;;;;;;2264303;61;20382;-58
2023/12/14 09:08:01;0.00;0.00;0.62;0.00;0.00;0.62;2.20;1.63;;;21.10;26.40;;;;;;2264618;61;20438;-52
2023/12/14 09:10:45;0.00;0.00;0.62;0.00;0.00;0.62;2.67;2.17;;;21.10;26.40;;;;;;2264020;61;20419;-55
2023/12/14 09:13:30;0.00;0.00;0.62;0.00;0.00;0.62;2.47;1.90;;;21.10;26.40;;;;;;2260963;61;20456;-57
2023/12/14 09:16:16;0.00;0.00;0.62;0.00;0.00;0.62;3.13;1.87;;;21.10;26.50;;;;;;2261411;61;20391;-56
2023/12/14 09:19:00;0.00;0.00;0.62;0.00;0.00;0.62;3.10;2.00;;;21.10;26.50;;;;;;2264392;61;20368;-57
2023/12/14 09:21:45;0.00;0.00;0.62;0.00;0.00;0.62;2.47;1.63;;;21.10;26.40;;;;;;2264193;61;20418;-58
2023/12/14 09:24:29;0.00;0.00;0.62;0.00;0.00;0.62;2.73;1.73;;;21.10;26.40;;;;;;2264588;61;20438;-55
2023/12/14 09:27:14;0.00;0.00;0.62;0.00;0.00;0.62;2.60;1.90;;;21.10;26.40;;;;;;2269392;61;20861;-52
2023/12/14 09:29:59;0.00;0.00;0.62;0.00;0.00;0.62;2.90;1.93;;;21.10;26.40;;;;;;2269447;61;20402;-57
2023/12/14 09:32:45;0.00;0.00;0.62;0.00;0.00;0.62;2.23;1.80;;;21.10;26.40;;;;;;2268679;61;20371;-57
2023/12/14 09:35:29;0.00;0.00;0.62;0.00;0.00;0.62;3.23;1.73;;;21.10;26.40;;;;;;2265055;61;20391;-61
2023/12/14 09:38:17;0.00;0.00;0.62;0.00;0.00;0.62;2.20;1.83;;;21.00;26.30;;;;;;2265767;61;20360;-53
2023/12/14 09:41:02;0.00;0.00;0.62;0.00;0.00;0.62;3.80;2.20;;;21.00;26.30;;;;;;2265680;61;20388;-56
2023/12/14 09:43:47;0.00;0.00;0.62;0.00;0.00;0.62;3.27;2.30;;;21.00;26.30;;;;;;2265265;61;20363;-54
2023/12/14 09:46:33;0.00;0.00;0.62;0.00;0.00;0.62;3.57;2.67;;;21.00;26.30;;;;;;2261540;61;20367;-56
2023/12/14 09:49:21;0.00;0.00;0.62;0.00;0.00;0.62;3.13;2.33;;;21.00;26.40;;;;;;2265001;61;20436;-54
2023/12/14 09:52:06;0.00;0.00;0.62;0.00;0.00;0.62;3.00;2.40;;;21.00;26.40;;;;;;2264777;61;20443;-52
2023/12/14 09:54:51;0.00;0.00;0.62;0.00;0.00;0.62;3.10;2.30;;;21.00;26.30;;;;;;2261366;61;20772;-54
2023/12/14 09:57:35;0.00;0.00;0.62;0.00;0.00;0.62;4.13;3.33;;;21.00;26.30;;;;;;2264645;61;20788;-59
2023/12/14 10:00:34;0.00;0.00;0.62;0.00;0.00;0.62;4.80;2.97;;;21.00;26.40;;;;;;2257628;61;20448;-61
2023/12/14 10:03:21;0.00;0.00;0.62;0.00;0.00;0.62;3.70;2.80;;;21.00;26.40;;;;;;2260324;61;20361;-54
2023/12/14 10:06:07;0.00;0.00;0.62;0.00;0.00;0.62;4.40;3.40;;;21.00;26.50;;;;;;2260936;61;20360;-59
2023/12/14 10:08:56;0.00;0.00;0.62;0.00;0.00;0.62;4.03;2.90;;;21.00;26.50;;;;;;2261141;61;20380;-62
2023/12/14 10:11:41;0.00;0.00;0.62;0.00;0.00;0.62;4.33;3.60;;;21.00;26.60;;;;;;2264533;61;20412;-55
2023/12/14 10:14:25;0.00;0.00;0.62;0.00;0.00;0.62;8.47;4.90;;;21.00;26.60;;;;;;2265158;61;20446;-59
2023/12/14 10:17:19;0.00;0.00;0.62;0.00;0.00;0.62;5.57;4.43;;;21.00;26.70;;;;;;2264750;61;20355;-58
2023/12/14 10:20:05;0.00;0.00;0.62;0.00;0.00;0.62;5.30;3.90;;;21.00;26.70;;;;;;2265090;61;20415;-56
2023/12/14 10:22:52;0.00;0.00;0.62;0.00;0.00;0.62;5.33;3.77;;;21.10;27.30;;;;;;2264667;61;20411;-55
2023/12/14 10:25:37;0.00;0.00;0.62;0.00;0.00;0.62;8.43;4.50;;;21.00;26.70;;;;;;2264689;61;20497;-63
2023/12/14 10:28:24;0.00;0.00;0.62;0.00;0.00;0.62;6.27;4.83;;;21.00;26.80;;;;;;2264830;61;20360;-56
2023/12/14 10:31:10;0.00;0.00;0.62;0.00;0.00;0.62;7.13;5.13;;;21.10;26.80;;;;;;2264834;61;20499;-58
2023/12/14 10:33:55;0.00;0.00;0.62;0.00;0.00;0.62;6.93;4.97;;;21.10;26.90;;;;;;2265954;61;20429;-59
2023/12/14 10:36:42;0.00;0.00;0.62;0.00;0.00;0.62;8.03;5.27;;;21.10;27.40;;;;;;2268744;61;20957;-53
2023/12/14 10:39:29;0.00;0.00;0.62;0.00;0.00;0.62;7.47;5.57;;;21.10;27.00;;;;;;2268521;61;20363;-57
2023/12/14 10:42:17;0.00;0.00;0.62;0.00;0.00;0.62;7.33;4.73;;;21.10;27.00;;;;;;2268484;61;20371;-61
2023/12/14 10:45:03;0.00;0.00;0.62;0.00;0.00;0.62;8.07;5.47;;;21.10;27.10;;;;;;2268696;61;20486;-59
2023/12/14 10:47:48;0.00;0.00;0.62;0.00;0.00;0.62;9.20;6.50;;;21.10;27.10;;;;;;2268587;61;20425;-57
2023/12/14 10:50:36;0.00;0.00;0.62;0.00;0.00;0.62;7.83;6.00;;;21.10;27.10;;;;;;2268959;61;20379;-57
2023/12/14 10:53:23;0.00;0.00;0.62;0.00;0.00;0.62;6.67;5.77;;;21.10;27.20;;;;;;2268266;61;20881;-51
2023/12/14 10:56:12;0.00;0.00;0.62;0.00;0.00;0.62;8.70;5.50;;;21.10;27.20;;;;;;2268805;61;20433;-55